»·PEaware :: N80991 KIFP-KPSP

N80991 :: KIFP-KPSP

FLIGHT INFORMATION

Flight Status: Arrived
Operator: Privately registered:
United States
More flights under this callsign
Pilot: Keenan Y. (13533)
Aircraft: CESSNA 172 SKYHAWK
(C172)
More flights by this aircraft type
Origin: KIFP Laughlin/Bullhead Intl
United States
Destination: KPSP Palm Springs Intl
United States
More flights between these airports :: More routes between these airports
Route: +EED V208 TNP V370 PSP
File this flight plan on PilotEdge
Remarks:
Altitude:
(Current/Filed)
6,500ft
Speed:
(Current/Filed)
100kts
Departed: 27-Jul-18 08:31 AM
Arrived: 27-Jul-18 09:57 AM
Distance/Time
Traveled:
125nm/1:26
Distance/Time
To Go:
Arrived

Flight Plot

Page will automatically refresh every two minutes.


Map Options




Map Legend


Flown Route
Filed Route
Departure Airport
Arrival Airport
Navaid (VOR, NDB)
Fix

Horizontal Profiles

Position Reports

Time Latitude Longitude Heading Altitude Ground
Speed
27-Jul-18 08:19 35.159758 -114.556367 266 678ft 0kts
27-Jul-18 08:20 35.159758 -114.556367 266 678ft 0kts
27-Jul-18 08:21 35.159758 -114.556367 266 678ft 0kts
27-Jul-18 08:22 35.159758 -114.556367 266 678ft 0kts
27-Jul-18 08:23 35.159758 -114.556367 266 678ft 0kts
27-Jul-18 08:24 35.159758 -114.556367 266 678ft 0kts
27-Jul-18 08:25 35.159758 -114.556367 266 678ft 0kts
27-Jul-18 08:26 35.159880 -114.558318 353 660ft 11kts
27-Jul-18 08:27 35.164733 -114.558715 355 643ft 18kts
27-Jul-18 08:28 35.166455 -114.558886 211 638ft 0kts
27-Jul-18 08:29 35.166455 -114.558886 211 638ft 0kts
27-Jul-18 08:30 35.166455 -114.558886 211 638ft 0kts
27-Jul-18 08:31 35.166208 -114.559311 267 634ft 0kts
27-Jul-18 08:32 35.158186 -114.559762 181 796ft 71kts
27-Jul-18 08:33 35.137811 -114.559086 180 1547ft 77kts
27-Jul-18 08:34 35.115763 -114.560903 188 2239ft 79kts
27-Jul-18 08:35 35.093452 -114.561290 172 2862ft 85kts
27-Jul-18 08:36 35.070361 -114.557897 179 3469ft 86kts
27-Jul-18 08:37 35.047187 -114.550147 159 4130ft 84kts
27-Jul-18 08:38 35.023428 -114.541965 169 4696ft 88kts
27-Jul-18 08:39 35.000642 -114.534724 166 5366ft 80kts
27-Jul-18 08:40 34.979471 -114.527582 169 5967ft 78kts
27-Jul-18 08:41 34.957836 -114.522215 168 6506ft 81kts
27-Jul-18 08:42 34.930472 -114.517389 174 6526ft 109kts
27-Jul-18 08:43 34.900164 -114.511235 168 6497ft 111kts
27-Jul-18 08:44 34.872681 -114.502075 165 6473ft 112kts
27-Jul-18 08:45 34.842410 -114.493157 172 6460ft 112kts
27-Jul-18 08:46 34.811930 -114.485946 168 6449ft 112kts
27-Jul-18 08:47 34.781417 -114.479829 189 6449ft 110kts
27-Jul-18 08:48 34.760701 -114.502079 233 6520ft 103kts
27-Jul-18 08:49 34.741743 -114.528928 237 6519ft 105kts
27-Jul-18 08:50 34.725337 -114.558772 239 6519ft 105kts
27-Jul-18 08:51 34.709554 -114.588723 239 6519ft 105kts
27-Jul-18 08:52 34.694175 -114.618543 240 6519ft 104kts
27-Jul-18 08:53 34.678947 -114.648395 240 6519ft 104kts
27-Jul-18 08:54 34.663711 -114.678419 240 6519ft 104kts
27-Jul-18 08:55 34.648506 -114.708460 240 6519ft 104kts
27-Jul-18 08:56 34.633435 -114.738832 242 6519ft 105kts
27-Jul-18 08:57 34.618789 -114.769313 241 6519ft 105kts
27-Jul-18 08:58 34.603842 -114.799666 241 6519ft 105kts
27-Jul-18 08:59 34.588694 -114.830018 240 6519ft 105kts
27-Jul-18 09:00 34.573509 -114.860201 240 6519ft 105kts
27-Jul-18 09:01 34.558324 -114.890266 240 6519ft 105kts
27-Jul-18 09:02 34.543084 -114.920365 240 6519ft 105kts
27-Jul-18 09:03 34.527767 -114.950563 240 6519ft 105kts
27-Jul-18 09:04 34.512483 -114.980663 240 6519ft 104kts
27-Jul-18 09:05 34.497263 -115.010610 240 6519ft 104kts
27-Jul-18 09:06 34.482138 -115.040340 239 6519ft 103kts
27-Jul-18 09:07 34.467152 -115.069767 239 6510ft 103kts
27-Jul-18 09:08 34.452229 -115.099043 238 6509ft 101kts
27-Jul-18 09:09 34.437409 -115.128087 238 6509ft 101kts
27-Jul-18 09:10 34.422687 -115.156913 237 6509ft 100kts
27-Jul-18 09:11 34.408070 -115.185507 236 6509ft 100kts
27-Jul-18 09:12 34.393379 -115.214194 236 6515ft 99kts
27-Jul-18 09:13 34.378916 -115.242400 236 6534ft 98kts
27-Jul-18 09:14 34.364531 -115.270444 236 6552ft 98kts
27-Jul-18 09:15 34.350202 -115.298365 236 6570ft 97kts
27-Jul-18 09:16 34.335966 -115.326087 236 6588ft 97kts
27-Jul-18 09:17 34.321741 -115.353765 237 6606ft 96kts
27-Jul-18 09:18 34.307621 -115.381220 237 6623ft 96kts
27-Jul-18 09:19 34.293554 -115.408551 237 6641ft 95kts
27-Jul-18 09:20 34.279552 -115.435731 237 6659ft 95kts
27-Jul-18 09:21 34.265535 -115.462923 237 6664ft 95kts
27-Jul-18 09:22 34.251346 -115.490428 237 6629ft 98kts
27-Jul-18 09:23 34.237102 -115.518027 237 6627ft 96kts
27-Jul-18 09:24 34.223939 -115.546035 239 6627ft 95kts
27-Jul-18 09:25 34.210647 -115.573879 238 6627ft 95kts
27-Jul-18 09:26 34.197010 -115.601419 238 6627ft 95kts
27-Jul-18 09:27 34.183216 -115.628715 238 6627ft 95kts
27-Jul-18 09:28 34.169615 -115.655303 237 6628ft 95kts
27-Jul-18 09:29 34.155747 -115.681921 236 6629ft 95kts
27-Jul-18 09:30 34.141769 -115.708768 237 6628ft 96kts
27-Jul-18 09:31 34.127595 -115.736008 237 6628ft 95kts
27-Jul-18 09:32 34.113535 -115.763020 236 6628ft 95kts
27-Jul-18 09:33 34.105120 -115.793080 246 6628ft 95kts
27-Jul-18 09:34 34.095253 -115.822786 245 6628ft 95kts
27-Jul-18 09:35 34.084987 -115.852148 244 6628ft 95kts
27-Jul-18 09:36 34.074234 -115.881417 244 6623ft 96kts
27-Jul-18 09:37 34.062966 -115.910683 244 6607ft 97kts
27-Jul-18 09:38 34.051370 -115.940752 245 6596ft 100kts
27-Jul-18 09:39 34.040300 -115.971597 250 6582ft 101kts
27-Jul-18 09:40 34.029455 -116.002761 245 6569ft 101kts
27-Jul-18 09:41 34.019730 -116.028550 245 6558ft 101kts
27-Jul-18 09:42 34.008017 -116.059588 246 6544ft 102kts
27-Jul-18 09:43 33.994441 -116.095524 246 6527ft 102kts
27-Jul-18 09:44 33.982690 -116.126598 246 6513ft 102kts
27-Jul-18 09:45 33.970948 -116.157619 246 6499ft 102kts
27-Jul-18 09:46 33.958697 -116.190099 244 6488ft 109kts
27-Jul-18 09:47 33.948074 -116.218088 244 6479ft 110kts
27-Jul-18 09:48 33.935963 -116.249988 244 6473ft 110kts
27-Jul-18 09:49 33.923304 -116.283306 243 6471ft 110kts
27-Jul-18 09:50 33.910680 -116.317069 245 6065ft 107kts
27-Jul-18 09:51 33.900390 -116.347689 247 5457ft 96kts
27-Jul-18 09:52 33.890914 -116.372999 242 4882ft 97kts
27-Jul-18 09:53 33.875739 -116.399559 226 4128ft 99kts
27-Jul-18 09:54 33.856734 -116.424563 222 3482ft 105kts
27-Jul-18 09:55 33.839754 -116.450113 234 2494ft 98kts
27-Jul-18 09:56 33.825247 -116.475409 234 1440ft 87kts
27-Jul-18 09:57 33.821120 -116.496966 337 554ft 82kts
27-Jul-18 09:58 33.829981 -116.504406 52 425ft 0kts
27-Jul-18 09:59 33.827652 -116.501990 143 425ft 17kts
27-Jul-18 10:00 33.824657 -116.499200 142 425ft 9kts
27-Jul-18 10:01 33.823680 -116.498441 51 425ft 0kts
27-Jul-18 10:02 33.823610 -116.498543 52 425ft 0kts
27-Jul-18 10:03 33.823610 -116.498543 52 425ft 0kts

Navigation Log

Ident Type
Flight plan parsing failed, navigation log unavailable